Time;durP1;ratioP1;P1;durP2;ratioP2;P2;SDS_P1;SDS_P2;PMS_P1;PMS_P2;Temp;Humidity;BMP_temperature;BMP_pressure;BME280_temperature;BME280_humidity;BME280_pressure;Samples;Min_cycle;Max_cycle;Signal;HPM_P1;HPM_P2
2021/03/14 00:00:10;;;;;;;7.38;0.63;;;5.20;99.90;;;;;;5025158;28;20488;-82
2021/03/14 00:02:36;;;;;;;6.00;0.40;;;5.30;99.90;;;;;;5025235;28;20033;-82
2021/03/14 00:05:04;;;;;;;7.65;0.50;;;5.20;99.90;;;;;;5025084;28;20062;-82
2021/03/14 00:07:29;;;;;;;7.57;0.60;;;5.20;99.90;;;;;;5031576;28;20049;-83
2021/03/14 00:09:55;;;;;;;5.25;0.60;;;5.10;99.90;;;;;;5012124;28;20090;-82
2021/03/14 00:12:20;;;;;;;3.78;0.30;;;5.10;99.90;;;;;;5012149;28;20033;-82
2021/03/14 00:14:46;;;;;;;5.45;0.40;;;5.00;99.90;;;;;;5012211;28;20065;-82
2021/03/14 00:17:11;;;;;;;7.30;0.50;;;5.00;99.90;;;;;;5028511;28;20085;-82
2021/03/14 00:19:37;;;;;;;13.13;0.63;;;5.00;99.90;;;;;;5008713;28;20041;-82
2021/03/14 00:22:03;;;;;;;8.25;0.30;;;5.10;99.90;;;;;;5008677;28;20072;-82
2021/03/14 00:24:28;;;;;;;4.20;0.40;;;5.00;99.90;;;;;;5024959;28;20046;-82
2021/03/14 00:26:54;;;;;;;8.20;0.40;;;5.00;99.90;;;;;;5008659;28;20026;-82
2021/03/14 00:29:20;;;;;;;7.40;0.40;;;4.90;99.90;;;;;;5029510;28;20052;-81
2021/03/14 00:31:45;;;;;;;6.55;0.50;;;5.00;99.90;;;;;;5013460;28;20053;-82
2021/03/14 00:34:11;;;;;;;11.57;0.85;;;4.90;99.90;;;;;;5010421;28;20057;-82
2021/03/14 00:36:36;;;;;;;3.80;0.30;;;4.90;99.90;;;;;;5009442;28;20029;-82
2021/03/14 00:39:02;;;;;;;5.32;0.50;;;4.90;99.90;;;;;;5008450;28;20045;-82
2021/03/14 00:41:28;;;;;;;8.88;0.50;;;5.00;99.90;;;;;;5008403;28;20030;-82
2021/03/14 00:43:53;;;;;;;9.32;1.02;;;4.90;99.90;;;;;;5008414;28;20069;-81
2021/03/14 00:46:19;;;;;;;8.25;0.57;;;4.90;99.90;;;;;;5024761;28;20041;-82
2021/03/14 00:48:46;;;;;;;8.43;0.32;;;4.90;99.90;;;;;;5008481;28;20049;-82
2021/03/14 00:51:12;;;;;;;5.72;0.40;;;4.90;99.90;;;;;;5004848;28;20107;-82
2021/03/14 00:53:43;;;;;;;12.20;0.73;;;5.00;99.90;;;;;;5004250;28;20610;-82
2021/03/14 00:56:17;;;;;;;9.68;0.50;;;5.00;99.90;;;;;;5004766;28;20026;-82
2021/03/14 00:58:43;;;;;;;7.53;0.50;;;4.90;99.90;;;;;;5004905;28;20129;-82
2021/03/14 01:01:09;;;;;;;3.78;0.40;;;5.00;99.90;;;;;;5004782;28;20049;-82
2021/03/14 01:03:38;;;;;;;14.20;0.70;;;5.00;99.90;;;;;;5004862;28;20057;-82
2021/03/14 01:06:04;;;;;;;9.32;0.65;;;5.00;99.90;;;;;;5004411;28;20529;-82
2021/03/14 01:08:31;;;;;;;6.05;0.40;;;5.10;99.90;;;;;;5004488;28;20078;-81
2021/03/14 01:10:57;;;;;;;9.20;0.70;;;5.10;99.90;;;;;;5004722;28;20398;-82
2021/03/14 01:13:43;;;;;;;7.43;0.40;;;5.10;99.90;;;;;;5005816;28;20062;-82
2021/03/14 01:16:09;;;;;;;5.93;0.47;;;5.20;99.90;;;;;;5004528;28;20398;-82
2021/03/14 01:18:35;;;;;;;6.25;0.30;;;5.10;99.90;;;;;;5004743;28;20053;-82
2021/03/14 01:21:01;;;;;;;6.38;0.40;;;5.10;99.90;;;;;;4988252;28;20034;-82
2021/03/14 01:23:26;;;;;;;5.47;0.45;;;5.20;99.90;;;;;;5004536;28;20153;-82
2021/03/14 01:25:52;;;;;;;9.65;0.50;;;5.20;99.90;;;;;;4991783;28;20041;-83
2021/03/14 01:28:18;;;;;;;12.00;0.60;;;5.20;99.90;;;;;;4992292;28;20038;-82
2021/03/14 01:30:44;;;;;;;9.60;0.65;;;5.30;99.90;;;;;;5008296;28;20026;-82
2021/03/14 01:33:09;;;;;;;9.75;0.73;;;5.30;99.90;;;;;;5008689;28;20030;-83
2021/03/14 01:35:35;;;;;;;6.72;0.40;;;5.30;99.90;;;;;;5009317;28;20105;-82
2021/03/14 01:38:01;;;;;;;7.50;0.85;;;5.30;99.90;;;;;;4995984;28;20054;-82
2021/03/14 01:40:27;;;;;;;6.72;0.50;;;5.30;99.90;;;;;;4979529;28;20026;-82
2021/03/14 01:42:53;;;;;;;6.07;0.30;;;5.30;99.90;;;;;;5009714;28;20454;-82
2021/03/14 01:45:20;;;;;;;7.97;0.90;;;5.30;99.90;;;;;;4991726;28;20092;-82
2021/03/14 01:47:49;;;;;;;6.53;0.40;;;5.30;99.90;;;;;;5008319;28;20034;-82
2021/03/14 01:50:21;;;;;;;4.50;0.40;;;5.20;99.90;;;;;;4991684;28;20414;-82
2021/03/14 01:52:48;;;;;;;3.25;0.43;;;5.20;99.90;;;;;;4975582;28;20546;-82
2021/03/14 01:55:15;;;;;;;7.35;0.50;;;5.10;99.90;;;;;;4991544;28;20110;-82
2021/03/14 01:57:42;;;;;;;9.65;0.70;;;5.20;99.90;;;;;;4975543;28;20117;-81
2021/03/14 02:00:26;;;;;;;10.18;0.60;;;5.30;99.90;;;;;;4975521;28;20030;-82
2021/03/14 02:02:52;;;;;;;5.00;0.50;;;5.40;99.90;;;;;;5007726;28;20061;-82
2021/03/14 02:05:19;;;;;;;7.65;0.50;;;5.30;99.90;;;;;;5007473;28;20030;-82
2021/03/14 02:07:48;;;;;;;8.93;0.75;;;5.40;99.90;;;;;;4983790;28;20108;-82
2021/03/14 02:10:15;;;;;;;8.73;0.77;;;5.40;99.90;;;;;;5027409;28;20097;-82
2021/03/14 02:12:48;;;;;;;10.20;0.60;;;5.40;99.90;;;;;;5027408;28;20101;-82
2021/03/14 02:15:14;;;;;;;8.70;0.60;;;5.50;99.90;;;;;;5027009;28;20045;-82
2021/03/14 02:17:42;;;;;;;9.00;0.50;;;5.40;99.90;;;;;;5027319;28;20496;-82
2021/03/14 02:20:11;;;;;;;5.50;0.43;;;5.40;99.90;;;;;;5010762;28;20080;-82
2021/03/14 02:22:40;;;;;;;12.82;0.75;;;5.50;99.90;;;;;;5010670;28;20120;-83
2021/03/14 02:25:11;;;;;;;4.75;0.40;;;5.50;99.90;;;;;;5026924;28;20075;-82
2021/03/14 02:27:39;;;;;;;7.15;0.40;;;5.50;99.90;;;;;;5010858;28;20052;-82
2021/03/14 02:30:06;;;;;;;7.43;0.50;;;5.50;99.90;;;;;;5027090;28;20062;-81
2021/03/14 02:32:33;;;;;;;4.55;0.65;;;5.50;99.90;;;;;;5010468;28;20033;-83
2021/03/14 02:35:02;;;;;;;8.85;0.40;;;5.40;99.90;;;;;;5010145;28;20068;-82
2021/03/14 02:37:28;;;;;;;15.27;0.68;;;5.50;99.90;;;;;;5025729;28;20033;-82
2021/03/14 02:39:55;;;;;;;6.32;0.30;;;5.50;99.90;;;;;;5026952;28;20033;-81
2021/03/14 02:42:23;;;;;;;9.43;0.40;;;5.50;99.90;;;;;;5010446;28;20026;-82
2021/03/14 02:44:51;;;;;;;6.20;0.40;;;5.50;99.90;;;;;;5010271;28;20042;-82
2021/03/14 02:47:25;;;;;;;7.28;0.40;;;5.40;99.90;;;;;;5026578;28;20034;-82
2021/03/14 02:49:51;;;;;;;7.70;0.40;;;5.40;99.90;;;;;;5010278;28;20029;-82
2021/03/14 02:52:23;;;;;;;4.32;0.30;;;5.40;99.90;;;;;;5026459;28;20038;-82
2021/03/14 02:54:50;;;;;;;6.68;0.40;;;5.40;99.90;;;;;;5010234;28;20034;-82
2021/03/14 02:57:21;;;;;;;2.30;0.28;;;5.40;99.90;;;;;;5010047;28;20053;-82
2021/03/14 02:59:52;;;;;;;4.65;0.30;;;5.20;99.90;;;;;;5010204;28;20037;-82
2021/03/14 03:02:20;;;;;;;8.65;0.30;;;5.40;99.90;;;;;;5009827;28;20054;-82
2021/03/14 03:04:48;;;;;;;4.30;0.30;;;5.40;99.90;;;;;;5009865;28;20042;-82
2021/03/14 03:07:16;;;;;;;7.10;0.70;;;5.40;99.90;;;;;;5009499;28;20176;-81
2021/03/14 03:09:46;;;;;;;4.80;0.32;;;5.50;99.90;;;;;;5026372;28;20334;-82
2021/03/14 03:12:14;;;;;;;6.00;0.40;;;5.40;99.90;;;;;;5009999;28;20044;-82
2021/03/14 03:14:42;;;;;;;5.60;0.30;;;5.40;99.90;;;;;;5009799;28;20065;-82
2021/03/14 03:17:08;;;;;;;11.02;0.50;;;5.40;99.90;;;;;;5001525;28;20390;-82
2021/03/14 03:19:35;;;;;;;6.72;0.40;;;5.40;99.90;;;;;;5009930;28;20041;-82
2021/03/14 03:22:02;;;;;;;5.88;0.40;;;5.40;99.90;;;;;;5026110;28;20034;-82
2021/03/14 03:24:27;;;;;;;10.45;0.55;;;5.40;99.90;;;;;;5009375;28;20042;-82
2021/03/14 03:26:53;;;;;;;6.40;0.43;;;5.30;99.90;;;;;;5025767;28;20087;-82
2021/03/14 03:29:19;;;;;;;7.88;0.45;;;5.20;99.90;;;;;;4993532;28;20037;-82
2021/03/14 03:31:46;;;;;;;9.25;0.30;;;5.20;99.90;;;;;;4993309;28;20029;-82
2021/03/14 03:34:12;;;;;;;7.80;0.60;;;5.20;99.90;;;;;;5009479;28;20105;-82
2021/03/14 03:36:39;;;;;;;6.43;0.43;;;5.10;99.90;;;;;;4992706;28;20040;-82
2021/03/14 03:39:07;;;;;;;5.97;0.30;;;5.10;99.90;;;;;;5009387;28;20505;-82
2021/03/14 03:41:35;;;;;;;9.90;0.30;;;5.10;99.90;;;;;;5009014;28;20036;-82
2021/03/14 03:44:03;;;;;;;5.00;0.30;;;5.10;99.90;;;;;;5009012;28;20084;-82
2021/03/14 03:46:30;;;;;;;10.40;0.45;;;5.10;99.90;;;;;;5008728;28;20026;-82
2021/03/14 03:48:56;;;;;;;7.45;0.40;;;5.00;99.90;;;;;;4992715;28;20042;-82
2021/03/14 03:51:30;;;;;;;8.45;0.80;;;5.10;99.90;;;;;;4978206;28;20117;-80
2021/03/14 03:53:58;;;;;;;10.45;0.65;;;5.00;99.90;;;;;;5005698;28;20038;-82
2021/03/14 03:56:25;;;;;;;10.43;0.40;;;5.10;99.90;;;;;;5005499;28;20046;-82
2021/03/14 03:58:52;;;;;;;6.47;0.40;;;5.10;99.90;;;;;;5005929;28;20044;-82
2021/03/14 04:01:18;;;;;;;7.72;0.40;;;5.10;99.90;;;;;;5021929;28;20077;-82
2021/03/14 04:03:46;;;;;;;9.35;0.70;;;5.00;99.90;;;;;;5005385;28;20049;-82
2021/03/14 04:06:13;;;;;;;9.82;0.73;;;4.90;99.90;;;;;;5005371;28;20061;-82
2021/03/14 04:08:40;;;;;;;9.45;0.30;;;4.90;99.90;;;;;;5002057;28;20047;-82
2021/03/14 04:11:09;;;;;;;10.00;0.40;;;4.90;99.90;;;;;;5005335;28;20032;-82
2021/03/14 04:13:36;;;;;;;7.63;0.50;;;4.80;99.90;;;;;;4986000;28;20034;-82
2021/03/14 04:16:03;;;;;;;8.65;0.40;;;4.80;99.90;;;;;;5008224;28;20069;-82
2021/03/14 04:18:30;;;;;;;6.75;0.60;;;4.70;99.90;;;;;;4989225;28;20042;-82
2021/03/14 04:20:59;;;;;;;4.25;0.30;;;4.80;99.90;;;;;;4989202;28;20034;-82
2021/03/14 04:23:26;;;;;;;6.70;0.40;;;4.80;99.90;;;;;;5021447;28;20110;-83
2021/03/14 04:25:55;;;;;;;12.82;1.02;;;4.80;99.90;;;;;;4989001;28;20034;-82
2021/03/14 04:28:25;;;;;;;10.17;0.50;;;4.80;99.90;;;;;;4989407;28;20046;-82
2021/03/14 04:30:52;;;;;;;7.90;0.38;;;4.80;99.90;;;;;;4989154;28;20061;-82
2021/03/14 04:33:19;;;;;;;10.63;0.40;;;4.80;99.90;;;;;;4989134;28;20030;-82
2021/03/14 04:35:45;;;;;;;5.00;0.38;;;4.70;99.90;;;;;;5005068;28;20100;-82
2021/03/14 04:38:12;;;;;;;5.82;0.30;;;4.70;99.90;;;;;;4989070;28;20537;-82
2021/03/14 04:40:39;;;;;;;5.53;0.30;;;4.70;99.90;;;;;;5004954;28;20041;-82
2021/03/14 04:43:06;;;;;;;10.93;0.35;;;4.70;99.90;;;;;;5004902;28;20034;-82
2021/03/14 04:45:33;;;;;;;8.15;0.50;;;4.70;99.90;;;;;;4988950;28;20034;-83
2021/03/14 04:47:59;;;;;;;6.85;0.40;;;4.80;99.90;;;;;;4990553;28;20053;-82
2021/03/14 04:50:27;;;;;;;9.13;0.47;;;4.70;99.90;;;;;;4974273;28;20467;-82
2021/03/14 04:52:55;;;;;;;5.68;0.30;;;4.70;99.90;;;;;;4974316;28;20034;-82
2021/03/14 04:55:21;;;;;;;5.63;0.40;;;4.70;99.90;;;;;;4988596;28;20057;-82
2021/03/14 04:57:48;;;;;;;9.63;0.40;;;4.60;99.90;;;;;;5004901;28;20038;-82
2021/03/14 05:00:15;;;;;;;5.70;0.50;;;4.60;99.90;;;;;;4987853;28;20475;-82
2021/03/14 05:02:45;;;;;;;6.70;0.50;;;4.60;99.90;;;;;;4988376;28;20051;-82
2021/03/14 05:05:13;;;;;;;8.90;0.30;;;4.60;99.90;;;;;;5004735;28;20043;-82
2021/03/14 05:07:41;;;;;;;6.32;0.32;;;4.70;99.90;;;;;;4988210;28;20312;-82
2021/03/14 05:10:10;;;;;;;7.38;0.50;;;4.70;99.90;;;;;;4972201;28;20041;-82
2021/03/14 05:12:38;;;;;;;7.32;0.40;;;4.70;99.90;;;;;;4988387;28;20034;-82
2021/03/14 05:15:05;;;;;;;6.93;0.50;;;4.70;99.90;;;;;;5004580;28;20022;-82
2021/03/14 05:17:33;;;;;;;8.90;0.70;;;4.70;99.90;;;;;;5003552;28;20034;-82
2021/03/14 05:19:58;;;;;;;8.82;0.30;;;4.60;99.90;;;;;;5023395;28;20054;-82
2021/03/14 05:22:25;;;;;;;18.98;1.23;;;4.60;99.90;;;;;;5007797;28;20026;-82
2021/03/14 05:24:51;;;;;;;6.55;0.35;;;4.60;99.90;;;;;;4991616;28;20052;-82
2021/03/14 05:27:18;;;;;;;11.90;0.77;;;4.60;99.90;;;;;;4991566;28;20030;-83
2021/03/14 05:29:47;;;;;;;10.30;0.88;;;4.60;99.90;;;;;;4991555;28;20041;-82
2021/03/14 05:32:12;;;;;;;5.72;0.70;;;4.70;99.90;;;;;;5008069;28;20060;-82
2021/03/14 05:34:38;;;;;;;8.38;0.50;;;4.70;99.90;;;;;;4991465;28;20034;-82
2021/03/14 05:37:04;;;;;;;6.45;0.55;;;4.70;99.90;;;;;;5007775;28;20038;-82
2021/03/14 05:39:29;;;;;;;12.43;0.50;;;4.70;99.90;;;;;;4991511;28;20065;-82
2021/03/14 05:41:56;;;;;;;8.75;1.20;;;4.80;99.90;;;;;;4991521;28;20033;-83
2021/03/14 05:44:22;;;;;;;5.30;0.50;;;4.80;99.90;;;;;;5007797;28;20402;-82
2021/03/14 05:46:48;;;;;;;10.07;0.70;;;4.80;99.90;;;;;;4991441;28;20097;-82
2021/03/14 05:49:13;;;;;;;9.32;0.75;;;4.80;99.90;;;;;;4991577;28;20049;-82
2021/03/14 05:51:44;;;;;;;6.40;0.52;;;4.80;99.90;;;;;;4988106;28;20034;-82
2021/03/14 05:54:16;;;;;;;7.93;0.95;;;4.80;99.90;;;;;;5004367;28;20101;-82
2021/03/14 05:56:44;;;;;;;7.30;1.23;;;4.70;99.90;;;;;;4997870;28;20026;-82
2021/03/14 05:59:12;;;;;;;6.18;0.80;;;4.60;99.90;;;;;;5004343;28;20026;-82
2021/03/14 06:01:39;;;;;;;6.78;0.90;;;4.60;99.90;;;;;;5004157;28;20034;-84
2021/03/14 06:04:10;;;;;;;9.57;1.60;;;4.50;99.90;;;;;;5004294;28;20044;-82
2021/03/14 06:06:36;;;;;;;6.80;1.63;;;4.40;99.90;;;;;;5019466;28;20030;-83
2021/03/14 06:09:03;;;;;;;7.65;1.40;;;4.30;99.90;;;;;;5007404;28;20053;-83
2021/03/14 06:11:29;;;;;;;8.75;1.42;;;4.30;99.90;;;;;;5009962;28;20034;-82
2021/03/14 06:13:55;;;;;;;7.05;1.30;;;4.30;99.90;;;;;;5027250;28;20474;-83
2021/03/14 06:16:21;;;;;;;5.90;1.17;;;4.30;99.90;;;;;;5016320;28;20026;-81
2021/03/14 06:18:51;;;;;;;6.95;1.25;;;4.30;99.90;;;;;;5022962;28;20033;-82
2021/03/14 06:21:23;;;;;;;8.57;1.33;;;4.30;99.90;;;;;;5008080;28;20057;-82
2021/03/14 06:24:02;;;;;;;4.97;1.10;;;4.30;99.90;;;;;;4993413;28;20041;-82
2021/03/14 06:26:48;;;;;;;6.07;1.13;;;4.40;99.90;;;;;;5010238;28;20033;-82
2021/03/14 06:29:17;;;;;;;10.75;3.72;;;4.30;99.90;;;;;;5010023;28;20388;-82
2021/03/14 06:31:46;;;;;;;8.43;1.75;;;4.30;99.90;;;;;;5026654;28;20025;-82
2021/03/14 06:34:34;;;;;;;8.30;1.67;;;4.30;99.90;;;;;;5009834;28;20033;-82
2021/03/14 06:37:11;;;;;;;8.52;2.50;;;4.30;99.90;;;;;;5009453;28;20129;-82
2021/03/14 06:39:40;;;;;;;6.78;1.30;;;4.30;99.90;;;;;;5009676;28;20046;-82
2021/03/14 06:42:06;;;;;;;6.32;1.88;;;4.30;99.90;;;;;;5025937;28;20084;-82
2021/03/14 06:44:34;;;;;;;6.22;1.63;;;4.30;99.90;;;;;;5025841;28;20102;-82
2021/03/14 06:47:01;;;;;;;4.65;1.60;;;4.30;99.90;;;;;;5009529;28;20079;-82
2021/03/14 06:49:28;;;;;;;5.20;0.80;;;4.30;99.90;;;;;;5009411;28;20034;-82
2021/03/14 06:51:56;;;;;;;4.53;1.38;;;4.20;99.90;;;;;;4993353;28;20426;-82
2021/03/14 06:54:39;;;;;;;4.20;0.77;;;4.30;99.90;;;;;;5025817;28;20036;-81
2021/03/14 06:57:17;;;;;;;3.50;1.10;;;4.30;99.90;;;;;;5011618;28;20267;-81
2021/03/14 06:59:56;;;;;;;3.00;1.00;;;4.30;99.90;;;;;;5025407;28;20113;-81
2021/03/14 07:02:29;;;;;;;4.38;0.90;;;4.30;99.90;;;;;;4989848;28;20088;-81
2021/03/14 07:04:59;;;;;;;3.40;0.70;;;4.40;99.90;;;;;;4989603;28;20049;-82
2021/03/14 07:07:26;;;;;;;2.83;0.65;;;4.50;99.90;;;;;;5010856;23;20175;-82
2021/03/14 07:10:06;;;;;;;2.00;0.90;;;4.50;99.90;;;;;;5045882;28;20040;-82
2021/03/14 07:12:32;;;;;;;6.57;0.88;;;4.40;99.90;;;;;;5030971;28;20036;-82
2021/03/14 07:15:25;;;;;;;4.68;1.45;;;4.50;99.90;;;;;;5032604;28;20199;-82
2021/03/14 07:17:55;;;;;;;4.28;1.60;;;4.50;99.90;;;;;;5025939;28;20026;-82
2021/03/14 07:20:27;;;;;;;5.18;1.10;;;4.50;99.90;;;;;;5012635;28;20108;-82
2021/03/14 07:23:10;;;;;;;4.75;0.68;;;4.60;99.90;;;;;;5047109;28;20022;-82
2021/03/14 07:25:44;;;;;;;5.35;1.05;;;4.60;99.90;;;;;;4993175;28;20096;-82
2021/03/14 07:28:11;;;;;;;4.35;1.30;;;4.70;99.90;;;;;;4993700;28;20057;-82
2021/03/14 07:30:38;;;;;;;7.75;2.03;;;4.70;99.90;;;;;;5004685;28;20029;-82
2021/03/14 07:33:04;;;;;;;5.35;1.45;;;4.70;99.90;;;;;;5028964;28;20026;-82
2021/03/14 07:35:30;;;;;;;6.97;2.35;;;4.70;99.90;;;;;;4995115;28;20049;-81
2021/03/14 07:38:00;;;;;;;5.53;1.85;;;4.70;99.90;;;;;;5009155;28;20069;-82
2021/03/14 07:40:29;;;;;;;4.82;2.08;;;4.70;99.90;;;;;;5023583;28;20204;-81
2021/03/14 07:42:56;;;;;;;5.78;2.42;;;4.80;99.90;;;;;;5012789;28;20152;-82
2021/03/14 07:45:22;;;;;;;6.85;2.85;;;4.90;99.90;;;;;;5010653;28;20049;-81
2021/03/14 07:47:48;;;;;;;9.15;3.75;;;4.90;99.90;;;;;;5007763;28;20053;-81
2021/03/14 07:50:27;;;;;;;8.73;3.42;;;4.90;99.90;;;;;;5024992;28;20393;-82
2021/03/14 07:53:00;;;;;;;7.40;2.85;;;4.90;99.90;;;;;;5026448;28;20030;-82
2021/03/14 07:55:26;;;;;;;6.70;3.78;;;4.90;99.90;;;;;;5027804;28;20034;-82
2021/03/14 07:57:52;;;;;;;7.57;2.90;;;5.00;99.90;;;;;;5028328;28;20040;-82
2021/03/14 08:00:31;;;;;;;9.50;3.50;;;5.10;99.90;;;;;;5028063;28;20060;-81
2021/03/14 08:03:07;;;;;;;9.48;3.10;;;5.20;99.90;;;;;;5011590;28;20040;-82
2021/03/14 08:06:19;;;;;;;9.68;4.35;;;5.30;99.90;;;;;;5028024;28;20055;-81
2021/03/14 08:08:45;;;;;;;7.63;3.83;;;5.10;99.90;;;;;;4888907;29;20060;-81
2021/03/14 08:11:25;;;;;;;9.07;3.42;;;5.30;99.90;;;;;;4873611;29;20093;-82
2021/03/14 08:13:51;;;;;;;8.70;4.00;;;5.30;99.90;;;;;;4888933;29;20049;-82
2021/03/14 08:16:16;;;;;;;10.60;4.45;;;5.40;99.90;;;;;;4881564;29;20053;-81
2021/03/14 08:18:47;;;;;;;8.65;3.67;;;5.30;99.90;;;;;;4907787;29;20534;-82
2021/03/14 08:21:22;;;;;;;8.93;3.35;;;5.50;99.90;;;;;;4891990;29;20186;-82
2021/03/14 08:23:51;;;;;;;6.97;4.18;;;5.60;99.90;;;;;;4892032;29;20047;-81
2021/03/14 08:26:27;;;;;;;9.20;3.92;;;5.80;99.90;;;;;;4907372;29;20049;-82
2021/03/14 08:28:59;;;;;;;7.75;3.40;;;5.70;99.90;;;;;;4892074;29;20032;-81
2021/03/14 08:31:42;;;;;;;9.23;4.68;;;5.80;99.90;;;;;;4907516;29;20052;-82
2021/03/14 08:34:19;;;;;;;8.15;3.97;;;5.90;99.90;;;;;;4888945;29;20151;-82
2021/03/14 08:36:46;;;;;;;5.07;3.15;;;6.10;99.90;;;;;;4904733;29;20103;-82
2021/03/14 08:39:34;;;;;;;7.75;3.35;;;6.20;99.90;;;;;;4893582;29;20080;-82
2021/03/14 08:42:08;;;;;;;10.25;5.18;;;6.10;99.90;;;;;;4892798;29;20032;-82
2021/03/14 08:44:46;;;;;;;;;;;6.10;99.90;;;;;;4897907;28;20054;-82
2021/03/14 08:47:30;;;;;;;6.22;2.42;;;6.20;99.90;;;;;;4999713;28;19946;-82
2021/03/14 08:50:01;;;;;;;10.43;4.40;;;6.40;99.90;;;;;;4995513;28;20038;-83
2021/03/14 08:52:32;;;;;;;9.63;5.22;;;6.30;99.90;;;;;;5012514;28;20025;-82
2021/03/14 08:55:10;;;;;;;11.55;5.68;;;6.10;99.90;;;;;;5014844;28;20025;-83
2021/03/14 08:57:37;;;;;;;10.15;4.70;;;6.10;99.90;;;;;;5011165;28;20041;-82
2021/03/14 09:00:06;;;;;;;8.77;4.57;;;6.20;99.90;;;;;;5010982;28;20029;-82
2021/03/14 09:02:38;;;;;;;11.15;4.65;;;6.20;99.90;;;;;;5011374;28;20128;-83
2021/03/14 09:05:17;;;;;;;8.45;3.30;;;6.30;99.90;;;;;;5027066;28;20110;-83
2021/03/14 09:08:01;;;;;;;9.13;4.38;;;6.40;99.90;;;;;;5011302;28;20046;-82
2021/03/14 09:10:36;;;;;;;12.48;5.25;;;6.50;99.90;;;;;;5011623;28;20029;-83
2021/03/14 09:13:11;;;;;;;12.15;5.47;;;6.60;99.90;;;;;;5012054;28;20021;-83
2021/03/14 09:15:48;;;;;;;11.88;4.75;;;6.70;99.90;;;;;;5011549;28;20033;-83
2021/03/14 09:18:48;;;;;;;10.45;4.63;;;6.60;99.90;;;;;;5028779;28;20108;-82
2021/03/14 09:21:14;;;;;;;12.57;4.60;;;6.80;99.90;;;;;;5010746;28;20034;-83
2021/03/14 09:23:44;;;;;;;12.95;5.18;;;7.00;99.90;;;;;;5011499;28;20061;-83
2021/03/14 09:26:28;;;;;;;8.00;4.22;;;6.90;99.90;;;;;;5011950;28;20034;-83
2021/03/14 09:28:59;;;;;;;8.75;4.10;;;6.90;99.90;;;;;;5026981;28;20025;-83
2021/03/14 09:31:27;;;;;;;10.02;4.93;;;6.90;99.90;;;;;;5027322;28;20105;-82
2021/03/14 09:34:01;;;;;;;10.38;4.18;;;6.80;99.90;;;;;;5011756;28;20021;-83
2021/03/14 09:36:32;;;;;;;8.70;3.72;;;7.00;99.90;;;;;;5011167;28;20030;-83
2021/03/14 09:39:02;;;;;;;9.10;3.13;;;7.10;99.90;;;;;;5011286;28;20055;-83
2021/03/14 09:41:44;;;;;;;6.18;3.55;;;7.00;99.90;;;;;;5012046;28;20053;-82
2021/03/14 09:44:19;;;;;;;11.50;3.65;;;7.10;99.90;;;;;;5026724;28;20034;-82
2021/03/14 09:47:02;;;;;;;13.90;3.50;;;7.00;99.90;;;;;;5015278;28;20033;-83
2021/03/14 09:50:00;;;;;;;10.07;3.30;;;7.20;99.90;;;;;;5017046;28;20037;-83
2021/03/14 09:52:26;;;;;;;9.85;2.65;;;7.00;99.90;;;;;;5030354;28;20083;-83
2021/03/14 09:54:52;;;;;;;9.38;2.25;;;7.10;99.90;;;;;;5030407;28;20037;-83
2021/03/14 09:57:20;;;;;;;7.28;2.53;;;7.20;99.90;;;;;;5030277;28;20035;-83
2021/03/14 09:59:57;;;;;;;12.10;2.90;;;7.20;99.90;;;;;;5015359;28;20060;-83
2021/03/14 10:02:43;;;;;;;8.15;2.85;;;7.20;99.90;;;;;;5032912;28;20531;-83
2021/03/14 10:05:25;;;;;;;6.63;2.53;;;7.40;99.90;;;;;;5015856;28;20038;-83
2021/03/14 10:07:53;;;;;;;8.23;2.20;;;7.60;99.90;;;;;;5013659;28;20050;-82
2021/03/14 10:10:20;;;;;;;5.97;1.40;;;7.90;99.90;;;;;;5014004;28;20032;-83
2021/03/14 10:12:54;;;;;;;13.52;2.30;;;7.80;99.90;;;;;;5014716;28;20026;-83
2021/03/14 10:15:20;;;;;;;10.90;2.95;;;7.80;99.90;;;;;;5013699;28;20036;-83
2021/03/14 10:17:52;;;;;;;10.88;2.75;;;7.70;99.90;;;;;;5014556;28;20116;-83
2021/03/14 10:20:20;;;;;;;12.60;2.97;;;7.70;99.90;;;;;;5013917;28;20524;-83
2021/03/14 10:23:01;;;;;;;6.78;2.60;;;7.60;99.90;;;;;;5013545;28;20115;-83
2021/03/14 10:25:36;;;;;;;5.43;2.17;;;7.60;99.90;;;;;;5014607;28;20390;-84
2021/03/14 10:28:17;;;;;;;8.35;2.30;;;7.70;99.90;;;;;;5014959;28;20022;-83
2021/03/14 10:31:06;;;;;;;9.15;2.22;;;7.80;99.90;;;;;;5032639;28;20060;-83
2021/03/14 10:33:37;;;;;;;6.57;1.50;;;7.90;99.90;;;;;;5013608;28;20124;-83
2021/03/14 10:36:09;;;;;;;12.90;1.88;;;8.10;99.90;;;;;;5013438;28;20053;-83
2021/03/14 10:38:41;;;;;;;8.43;1.63;;;8.10;99.90;;;;;;5013649;28;20116;-81
2021/03/14 10:41:15;;;;;;;5.78;1.83;;;8.10;99.90;;;;;;5014313;28;20117;-83
2021/03/14 10:43:52;;;;;;;9.45;1.40;;;8.10;99.90;;;;;;5014023;28;20053;-83
2021/03/14 10:46:46;;;;;;;10.50;1.75;;;7.70;99.90;;;;;;5013397;28;20029;-83
2021/03/14 10:49:33;;;;;;;4.80;1.30;;;7.80;99.90;;;;;;5013208;28;20025;-82
2021/03/14 10:52:12;;;;;;;8.15;1.05;;;7.90;99.90;;;;;;4994890;28;20034;-83
2021/03/14 10:54:38;;;;;;;9.95;1.25;;;8.00;99.90;;;;;;5009868;28;20500;-83
2021/03/14 10:57:16;;;;;;;8.82;1.65;;;8.00;99.90;;;;;;4994260;28;20120;-83
2021/03/14 11:00:04;;;;;;;5.95;1.45;;;7.70;99.90;;;;;;5009751;28;20097;-84
2021/03/14 11:02:42;;;;;;;3.65;0.52;;;7.60;99.90;;;;;;4993536;28;20083;-83
2021/03/14 11:05:11;;;;;;;5.63;1.03;;;7.40;99.90;;;;;;5009580;28;20045;-83
2021/03/14 11:07:56;;;;;;;4.07;0.50;;;7.60;99.90;;;;;;5009088;28;20308;-83
2021/03/14 11:10:41;;;;;;;2.22;0.40;;;7.60;99.90;;;;;;5012135;28;20116;-83
2021/03/14 11:13:17;;;;;;;4.57;0.50;;;7.20;99.90;;;;;;4994482;28;20036;-83
2021/03/14 11:16:07;;;;;;;3.28;0.50;;;7.10;99.90;;;;;;4999615;28;20029;-82
2021/03/14 11:18:39;;;;;;;4.30;0.50;;;7.10;99.90;;;;;;5013203;28;20036;-82
2021/03/14 11:21:13;;;;;;;2.75;0.60;;;7.20;99.90;;;;;;5013661;28;20057;-85
2021/03/14 11:23:43;;;;;;;5.05;0.60;;;7.50;99.90;;;;;;5013098;28;20037;-82
2021/03/14 11:26:09;;;;;;;4.18;0.68;;;8.40;99.90;;;;;;5012265;28;20580;-82
2021/03/14 11:28:47;;;;;;;7.80;1.48;;;8.70;99.90;;;;;;5012316;28;20076;-83
2021/03/14 11:31:19;;;;;;;6.32;0.70;;;8.40;99.90;;;;;;5028669;28;20034;-83
2021/03/14 11:33:45;;;;;;;4.88;0.75;;;8.20;99.90;;;;;;5012020;28;20040;-83
2021/03/14 11:36:17;;;;;;;6.07;0.90;;;7.90;99.90;;;;;;5012729;28;20025;-83
2021/03/14 11:38:59;;;;;;;3.35;0.60;;;8.00;99.90;;;;;;5028584;28;20037;-83
2021/03/14 11:41:44;;;;;;;5.78;0.93;;;7.70;99.90;;;;;;5014397;28;20523;-82
2021/03/14 11:44:28;;;;;;;3.95;0.40;;;7.80;99.90;;;;;;5030972;28;20075;-83
2021/03/14 11:46:54;;;;;;;5.70;0.40;;;8.50;99.90;;;;;;5012150;28;20093;-83
2021/03/14 11:49:42;;;;;;;3.45;0.30;;;8.50;99.90;;;;;;5030165;28;20044;-83
2021/03/14 11:52:08;;;;;;;1.73;0.40;;;8.30;99.90;;;;;;5028360;28;20034;-83
2021/03/14 11:54:34;;;;;;;2.20;0.35;;;8.50;99.90;;;;;;5011694;28;20033;-83
2021/03/14 11:57:03;;;;;;;2.88;0.40;;;8.80;99.90;;;;;;5012432;28;20025;-83
2021/03/14 11:59:36;;;;;;;2.47;0.30;;;8.60;99.90;;;;;;5012706;28;20083;-83
2021/03/14 12:02:06;;;;;;;2.70;0.32;;;8.60;99.90;;;;;;5012200;28;20034;-83
2021/03/14 12:04:48;;;;;;;6.63;0.50;;;9.20;99.90;;;;;;5013371;28;20037;-83
2021/03/14 12:07:14;;;;;;;4.43;0.50;;;9.50;99.90;;;;;;5011241;28;20041;-83
2021/03/14 12:09:40;;;;;;;4.20;0.70;;;9.50;99.90;;;;;;5027842;28;20063;-83
2021/03/14 12:12:08;;;;;;;4.10;0.45;;;9.70;99.90;;;;;;5012004;28;20025;-83
2021/03/14 12:14:40;;;;;;;2.15;0.40;;;9.50;99.90;;;;;;5012005;28;20033;-83
2021/03/14 12:17:19;;;;;;;1.35;0.38;;;9.40;99.90;;;;;;5013427;28;20135;-83
2021/03/14 12:20:16;;;;;;;8.45;0.52;;;9.20;99.90;;;;;;5015594;28;20508;-83
2021/03/14 12:22:55;;;;;;;4.28;0.40;;;9.30;99.90;;;;;;5013283;28;20114;-84
2021/03/14 12:25:24;;;;;;;4.90;0.50;;;9.40;99.90;;;;;;5011533;28;20041;-83
2021/03/14 12:27:50;;;;;;;6.78;0.50;;;9.30;99.90;;;;;;5011553;28;20089;-83
2021/03/14 12:30:17;;;;;;;2.80;0.40;;;9.10;99.90;;;;;;5011231;28;20075;-83
2021/03/14 12:32:42;;;;;;;4.15;0.43;;;9.20;99.90;;;;;;5011576;28;20029;-83
2021/03/14 12:35:16;;;;;;;6.43;0.40;;;9.20;99.90;;;;;;5011943;28;20029;-83
2021/03/14 12:37:44;;;;;;;3.80;0.95;;;9.10;99.90;;;;;;5011557;28;20033;-83
2021/03/14 12:40:12;;;;;;;2.55;0.35;;;9.10;99.90;;;;;;5011537;28;20080;-84
2021/03/14 12:42:38;;;;;;;5.32;0.40;;;9.40;99.90;;;;;;5011319;28;20113;-84
2021/03/14 12:45:13;;;;;;;2.58;0.40;;;9.10;99.90;;;;;;5027522;28;20117;-84
2021/03/14 12:47:38;;;;;;;5.97;0.40;;;9.50;99.90;;;;;;5011127;28;20026;-84
2021/03/14 12:50:07;;;;;;;5.18;0.32;;;9.20;99.90;;;;;;5011257;28;20564;-83
2021/03/14 12:52:36;;;;;;;4.88;0.40;;;9.30;99.90;;;;;;5011514;28;20032;-83
2021/03/14 12:55:03;;;;;;;8.73;0.40;;;9.30;99.90;;;;;;5011212;28;20033;-83
2021/03/14 12:57:29;;;;;;;5.80;0.30;;;8.90;99.90;;;;;;5011296;28;20033;-83
2021/03/14 12:59:55;;;;;;;4.93;0.30;;;8.70;99.90;;;;;;5011052;28;20564;-84
2021/03/14 13:02:20;;;;;;;6.57;0.30;;;9.20;99.90;;;;;;5011140;28;20029;-84
2021/03/14 13:04:46;;;;;;;5.45;0.38;;;9.10;99.90;;;;;;5010691;28;20069;-84
2021/03/14 13:07:11;;;;;;;4.28;0.30;;;9.10;99.90;;;;;;5010602;28;20096;-83
2021/03/14 13:09:37;;;;;;;4.35;0.52;;;9.20;99.90;;;;;;5010844;28;20129;-83
2021/03/14 13:12:05;;;;;;;7.63;0.82;;;9.00;99.90;;;;;;5011016;28;20040;-84